Time;durP1;ratioP1;P1;durP2;ratioP2;P2;SDS_P1;SDS_P2;PMS_P1;PMS_P2;Temp;Humidity;BMP_temperature;BMP_pressure;BME280_temperature;BME280_humidity;BME280_pressure;Samples;Min_cycle;Max_cycle;Signal;HPM_P1;HPM_P2
2024/02/13 00:01:41;;;;;;;7.30;2.10;;;;;;;5.80;100.00;101477.63;4996508;28;20621;-73
2024/02/13 00:04:10;;;;;;;16.73;2.77;;;;;;;6.17;100.00;101546.75;4999388;28;20186;-73
2024/02/13 00:06:36;;;;;;;9.30;2.80;;;;;;;6.05;100.00;101559.47;4993956;28;20656;-73
2024/02/13 00:09:03;;;;;;;9.23;2.50;;;;;;;6.22;100.00;101552.47;4978168;28;20582;-73
2024/02/13 00:11:31;;;;;;;10.83;2.43;;;;;;;6.02;100.00;101532.31;4999436;28;20456;-73
2024/02/13 00:13:57;;;;;;;9.47;2.40;;;;;;;5.79;100.00;101492.78;5002993;28;20559;-73
2024/02/13 00:16:23;;;;;;;10.73;2.27;;;;;;;5.94;100.00;101513.59;4980340;28;20539;-73
2024/02/13 00:18:50;;;;;;;10.70;2.47;;;;;;;5.64;100.00;101486.28;4997525;28;20185;-73
2024/02/13 00:21:16;;;;;;;10.60;2.53;;;;;;;6.11;100.00;101550.03;5000011;28;20497;-73
2024/02/13 00:23:41;;;;;;;12.27;2.80;;;;;;;6.21;100.00;101566.75;4999528;28;20456;-73
2024/02/13 00:26:09;;;;;;;11.33;2.43;;;;;;;5.71;100.00;101487.38;4996746;28;20203;-72
2024/02/13 00:28:38;;;;;;;9.17;2.30;;;;;;;6.07;100.00;101565.47;4977771;28;20220;-73
2024/02/13 00:31:07;;;;;;;9.10;2.47;;;;;;;5.88;100.00;101555.78;4995408;28;20454;-73
2024/02/13 00:33:37;;;;;;;9.70;2.07;;;;;;;5.80;100.00;101553.00;4998311;28;20448;-73
2024/02/13 00:36:03;;;;;;;8.50;2.13;;;;;;;6.06;100.00;101560.31;4988604;28;20570;-73
2024/02/13 00:38:31;;;;;;;8.93;2.00;;;;;;;5.72;100.00;101496.19;5003943;28;20539;-73
2024/02/13 00:40:57;;;;;;;10.20;2.00;;;;;;;5.86;100.00;101548.91;4999729;28;20464;-73
2024/02/13 00:43:22;;;;;;;10.10;2.70;;;;;;;5.98;100.00;101569.03;4992798;28;20573;-73
2024/02/13 00:45:48;;;;;;;11.93;2.30;;;;;;;5.94;100.00;101569.50;4998017;28;20569;-73
2024/02/13 00:48:16;;;;;;;6.90;2.33;;;;;;;5.51;100.00;101496.47;4996503;28;20319;-72
2024/02/13 00:50:44;;;;;;;11.53;2.57;;;;;;;5.44;100.00;101485.59;5000448;28;20472;-73
2024/02/13 00:53:10;;;;;;;10.50;2.30;;;;;;;5.93;100.00;101554.47;4996492;28;21008;-73
2024/02/13 00:55:36;;;;;;;8.70;2.00;;;;;;;5.32;100.00;101438.88;4996197;28;20476;-73
2024/02/13 00:58:01;;;;;;;8.30;2.47;;;;;;;5.60;100.00;101532.81;5000065;28;20841;-73
2024/02/13 01:00:27;;;;;;;10.57;2.10;;;;;;;5.24;100.00;101462.75;4999445;28;20470;-73
2024/02/13 01:02:53;;;;;;;15.33;2.70;;;;;;;5.81;100.00;101537.88;4997453;28;20192;-72
2024/02/13 01:05:19;;;;;;;9.60;2.03;;;;;;;5.72;100.00;101565.41;4997507;28;20749;-73
2024/02/13 01:07:45;;;;;;;8.00;2.13;;;;;;;5.83;100.00;101575.84;4994437;28;20482;-73
2024/02/13 01:10:10;;;;;;;10.30;2.60;;;;;;;5.58;100.00;101542.78;4995838;28;20299;-73
2024/02/13 01:12:37;;;;;;;9.23;2.30;;;;;;;5.76;100.00;101569.44;4997657;28;20453;-73
2024/02/13 01:15:03;;;;;;;8.83;2.47;;;;;;;5.31;100.00;101490.41;4981897;28;20209;-73
2024/02/13 01:17:29;;;;;;;7.47;2.10;;;;;;;5.49;100.00;101572.94;4977997;28;20472;-73
2024/02/13 01:19:54;;;;;;;9.03;2.43;;;;;;;5.70;100.00;101578.00;4994744;28;20599;-73
2024/02/13 01:22:20;;;;;;;11.03;2.20;;;;;;;5.29;100.00;101524.31;4997616;28;20200;-73
2024/02/13 01:24:45;;;;;;;10.30;2.83;;;;;;;5.39;100.00;101525.09;4979448;28;20557;-73
2024/02/13 01:27:11;;;;;;;9.97;2.60;;;;;;;5.69;100.00;101587.81;4999760;28;20200;-73
2024/02/13 01:29:36;;;;;;;10.40;2.83;;;;;;;4.83;100.00;101448.94;4996865;28;20214;-73
2024/02/13 01:32:05;;;;;;;13.23;3.27;;;;;;;5.71;100.00;101569.06;4998393;28;20916;-73
2024/02/13 01:34:30;;;;;;;9.63;2.90;;;;;;;4.95;100.00;101464.56;4978277;28;20205;-73
2024/02/13 01:36:59;;;;;;;8.07;2.60;;;;;;;5.61;100.00;101571.75;4978407;28;21269;-73
2024/02/13 01:39:25;;;;;;;8.30;3.13;;;;;;;5.51;100.00;101566.50;4991342;28;20208;-73
2024/02/13 01:41:51;;;;;;;8.90;2.50;;;;;;;4.83;100.00;101472.84;4999460;28;20441;-73
2024/02/13 01:44:16;;;;;;;7.77;3.40;;;;;;;5.13;100.00;101519.63;4996623;28;20197;-73
2024/02/13 01:46:42;;;;;;;11.77;3.93;;;;;;;5.30;100.00;101521.50;4982993;28;20189;-73
2024/02/13 01:49:09;;;;;;;6.73;2.97;;;;;;;5.54;100.00;101576.84;4978019;28;20266;-73
2024/02/13 01:51:37;;;;;;;12.77;4.10;;;;;;;5.58;100.00;101582.69;5000695;28;20967;-73
2024/02/13 01:54:10;;;;;;;15.57;3.70;;;;;;;5.52;100.00;101578.78;4999905;28;20440;-73
2024/02/13 01:56:36;;;;;;;11.20;4.20;;;;;;;5.35;100.00;101556.50;4981855;28;20526;-73
2024/02/13 01:59:03;;;;;;;8.63;3.43;;;;;;;5.28;100.00;101559.88;4999537;28;21091;-73
2024/02/13 02:01:29;;;;;;;13.83;4.37;;;;;;;5.32;100.00;101548.81;5000654;28;20498;-73
2024/02/13 02:03:58;;;;;;;10.83;4.23;;;;;;;5.30;100.00;101549.94;4981727;28;22436;-73
2024/02/13 02:06:24;;;;;;;13.57;5.17;;;;;;;5.20;100.00;101526.03;4998133;28;20455;-74
2024/02/13 02:08:49;;;;;;;14.60;5.90;;;;;;;5.00;100.00;101493.34;4999625;28;20502;-73
2024/02/13 02:11:15;;;;;;;14.47;4.73;;;;;;;5.25;100.00;101521.13;4997452;28;20271;-73
2024/02/13 02:13:42;;;;;;;11.53;5.90;;;;;;;5.51;100.00;101577.13;5000576;28;20331;-73
2024/02/13 02:16:08;;;;;;;17.07;5.73;;;;;;;5.47;100.00;101567.78;4998088;28;20201;-73
2024/02/13 02:18:33;;;;;;;13.53;6.20;;;;;;;5.25;100.00;101546.88;4981304;28;20468;-73
2024/02/13 02:20:59;;;;;;;11.60;5.10;;;;;;;5.40;100.00;101570.19;4999593;28;20600;-73
2024/02/13 02:23:26;;;;;;;12.30;6.20;;;;;;;5.59;100.00;101565.75;4996158;28;20201;-73
2024/02/13 02:25:52;;;;;;;13.83;6.13;;;;;;;5.44;100.00;101589.38;5004784;28;20235;-73
2024/02/13 02:28:17;;;;;;;15.03;5.97;;;;;;;5.20;100.00;101555.28;4993190;28;24407;-73
2024/02/13 02:30:45;;;;;;;13.13;6.10;;;;;;;5.41;100.00;101573.69;4997152;28;20209;-73
2024/02/13 02:33:12;;;;;;;13.50;6.27;;;;;;;5.33;100.00;101536.34;4983400;28;20229;-73
2024/02/13 02:35:38;;;;;;;16.90;6.90;;;;;;;5.06;100.00;101524.69;4997021;28;20475;-73
2024/02/13 02:38:04;;;;;;;13.30;6.70;;;;;;;4.71;100.00;101472.19;4998278;28;20542;-73
2024/02/13 02:40:29;;;;;;;11.83;6.43;;;;;;;5.15;100.00;101546.91;4996787;28;20494;-73
2024/02/13 02:42:59;;;;;;;13.70;6.70;;;;;;;4.94;100.00;101507.25;4979557;28;20185;-73
2024/02/13 02:45:27;;;;;;;12.27;7.43;;;;;;;5.32;100.00;101577.22;5000053;28;20265;-73
2024/02/13 02:47:53;;;;;;;14.77;6.87;;;;;;;5.28;100.00;101579.34;4996987;28;20487;-73
2024/02/13 02:50:18;;;;;;;14.83;6.47;;;;;;;5.26;100.00;101575.13;5000990;28;21341;-73
2024/02/13 02:52:44;;;;;;;16.83;7.27;;;;;;;4.53;100.00;101454.34;5003002;28;20217;-73
2024/02/13 02:55:10;;;;;;;16.47;7.47;;;;;;;5.09;100.00;101532.38;4999200;28;20205;-73
2024/02/13 02:57:35;;;;;;;14.60;7.80;;;;;;;5.29;100.00;101561.53;4982780;28;20204;-73
2024/02/13 03:00:03;;;;;;;14.30;6.97;;;;;;;5.29;100.00;101574.84;4999680;28;20463;-73
2024/02/13 03:02:29;;;;;;;11.00;6.83;;;;;;;4.95;100.00;101522.22;4999017;28;20656;-73
2024/02/13 03:04:55;;;;;;;16.77;7.63;;;;;;;4.89;100.00;101536.94;4982995;28;20440;-73
2024/02/13 03:07:21;;;;;;;18.63;7.90;;;;;;;4.87;100.00;101501.69;5000503;28;20448;-72
2024/02/13 03:09:47;;;;;;;12.90;7.03;;;;;;;5.23;100.00;101568.28;4979173;28;20918;-73
2024/02/13 03:12:12;;;;;;;11.47;6.87;;;;;;;5.18;100.00;101575.88;4983855;28;20590;-73
2024/02/13 03:14:38;;;;;;;14.50;7.70;;;;;;;4.70;100.00;101497.94;5001242;28;20208;-73
2024/02/13 03:17:06;;;;;;;16.40;8.30;;;;;;;5.06;100.00;101545.94;5001972;28;20205;-73
2024/02/13 03:19:32;;;;;;;16.30;7.93;;;;;;;5.29;100.00;101575.69;4979844;28;20494;-73
2024/02/13 03:21:57;;;;;;;14.30;7.17;;;;;;;5.07;100.00;101542.31;4994754;28;22048;-73
2024/02/13 03:24:23;;;;;;;15.67;8.07;;;;;;;5.10;100.00;101541.19;4998948;28;20227;-73
2024/02/13 03:26:48;;;;;;;14.63;7.87;;;;;;;5.20;100.00;101588.03;5000064;28;20193;-73
2024/02/13 03:29:14;;;;;;;14.87;8.07;;;;;;;5.24;100.00;101556.69;4997919;28;20594;-73
2024/02/13 03:31:39;;;;;;;17.27;8.50;;;;;;;5.20;100.00;101556.13;5001791;28;20196;-73
2024/02/13 03:34:05;;;;;;;17.23;7.40;;;;;;;5.19;100.00;101550.97;4999280;28;20558;-73
2024/02/13 03:36:30;;;;;;;13.00;7.60;;;;;;;4.42;100.00;101473.13;4997303;28;20197;-73
2024/02/13 03:38:58;;;;;;;14.70;7.40;;;;;;;5.26;100.00;101593.75;5000428;28;20204;-73
2024/02/13 03:41:24;;;;;;;14.30;7.67;;;;;;;5.17;100.00;101596.31;4998258;28;20228;-73
2024/02/13 03:43:49;;;;;;;16.37;7.60;;;;;;;5.19;100.00;101604.97;4999471;28;20480;-73
2024/02/13 03:46:15;;;;;;;21.53;9.20;;;;;;;5.05;100.00;101612.59;4981124;28;20182;-73
2024/02/13 03:48:40;;;;;;;16.80;9.00;;;;;;;4.80;100.00;101542.25;4998736;28;20279;-73
2024/02/13 03:51:06;;;;;;;18.17;9.10;;;;;;;4.91;100.00;101550.91;4997606;28;20201;-76
2024/02/13 03:53:33;;;;;;;16.70;8.87;;;;;;;4.84;100.00;101541.84;4996674;28;20217;-73
2024/02/13 03:56:01;;;;;;;16.67;9.07;;;;;;;5.13;100.00;101602.91;4982923;28;21386;-73
2024/02/13 03:58:28;;;;;;;14.70;8.30;;;;;;;5.13;100.00;101604.72;4997310;28;20459;-73
2024/02/13 04:00:55;;;;;;;16.40;8.97;;;;;;;5.15;100.00;101603.59;4996495;28;20543;-73
2024/02/13 04:03:20;;;;;;;19.03;8.90;;;;;;;4.53;100.00;101501.34;4996657;28;20510;-75
2024/02/13 04:05:45;;;;;;;17.77;8.50;;;;;;;4.73;100.00;101534.03;4992984;28;20443;-73
2024/02/13 04:08:12;;;;;;;16.80;9.13;;;;;;;5.10;100.00;101597.88;4998476;28;20609;-73
2024/02/13 04:10:38;;;;;;;19.70;9.30;;;;;;;5.11;100.00;101599.53;4998405;28;20209;-73
2024/02/13 04:13:06;;;;;;;17.13;10.03;;;;;;;4.96;100.00;101571.75;4979896;28;20470;-73
2024/02/13 04:15:33;;;;;;;15.80;9.57;;;;;;;4.40;100.00;101503.47;4997373;28;20475;-73
2024/02/13 04:17:58;;;;;;;20.60;9.70;;;;;;;5.06;100.00;101603.63;4998444;28;20458;-73
2024/02/13 04:20:24;;;;;;;15.83;9.40;;;;;;;4.63;100.00;101525.22;4983068;28;20475;-73
2024/02/13 04:22:49;;;;;;;17.57;10.13;;;;;;;4.89;100.00;101552.03;4999283;28;20189;-73
2024/02/13 04:25:15;;;;;;;14.53;9.80;;;;;;;4.68;100.00;101568.16;5000992;28;20193;-73
2024/02/13 04:27:43;;;;;;;21.20;11.60;;;;;;;4.92;100.00;101583.66;5002540;28;20185;-73
2024/02/13 04:30:12;;;;;;;21.07;10.90;;;;;;;4.52;100.00;101500.50;4990723;28;20631;-76
2024/02/13 04:32:38;;;;;;;18.23;10.73;;;;;;;4.78;100.00;101578.78;4980694;28;20447;-73
2024/02/13 04:35:05;;;;;;;18.40;11.43;;;;;;;4.85;100.00;101580.72;4978757;28;20474;-73
2024/02/13 04:37:31;;;;;;;22.53;11.83;;;;;;;4.91;100.00;101605.91;4981811;28;20452;-73
2024/02/13 04:39:57;;;;;;;19.63;12.10;;;;;;;4.86;100.00;101562.94;4997569;28;20530;-73
2024/02/13 04:42:29;;;;;;;21.60;11.33;;;;;;;4.71;100.00;101563.38;4980380;28;20444;-73
2024/02/13 04:44:55;;;;;;;19.10;12.67;;;;;;;4.81;100.00;101570.53;4998513;28;20220;-73
2024/02/13 04:47:20;;;;;;;20.03;11.53;;;;;;;4.64;100.00;101572.94;4996908;28;20886;-73
2024/02/13 04:49:46;;;;;;;20.73;12.30;;;;;;;4.55;100.00;101559.66;4979269;28;20205;-73
2024/02/13 04:52:13;;;;;;;19.40;12.30;;;;;;;4.54;100.00;101545.53;4995120;28;20272;-76
2024/02/13 04:54:38;;;;;;;22.53;12.93;;;;;;;4.66;100.00;101575.47;4999558;28;20495;-73
2024/02/13 04:57:05;;;;;;;18.07;13.93;;;;;;;4.67;100.00;101575.31;4984274;28;20483;-73
2024/02/13 04:59:37;;;;;;;19.20;11.23;;;;;;;4.61;100.00;101546.66;4998566;28;21379;-73
2024/02/13 05:02:05;;;;;;;21.00;11.33;;;;;;;4.65;100.00;101553.34;4992378;28;20451;-73
2024/02/13 05:09:40;;;;;;;27.87;11.20;;;;;;;4.40;100.00;101506.13;5001879;28;20326;-73
2024/02/13 05:12:06;;;;;;;23.53;13.40;;;;;;;4.67;100.00;101572.63;5000757;28;20530;-73
2024/02/13 05:14:32;;;;;;;21.23;11.23;;;;;;;4.75;100.00;101594.03;4997340;28;20459;-73
2024/02/13 05:17:02;;;;;;;21.73;11.80;;;;;;;4.32;100.00;101490.06;4979088;28;20631;-73
2024/02/13 05:19:28;;;;;;;20.43;12.00;;;;;;;4.88;100.00;101574.28;4984898;28;20205;-73
2024/02/13 05:21:54;;;;;;;20.17;12.27;;;;;;;4.45;100.00;101525.13;4999629;28;20459;-74
2024/02/13 05:24:19;;;;;;;26.43;12.37;;;;;;;4.82;100.00;101575.69;4994001;28;20244;-73
2024/02/13 05:26:45;;;;;;;19.23;11.47;;;;;;;4.67;100.00;101585.09;4982811;28;20444;-73
2024/02/13 05:29:10;;;;;;;18.77;11.77;;;;;;;4.51;100.00;101565.25;4996081;28;20292;-73
2024/02/13 05:31:35;;;;;;;18.17;12.10;;;;;;;4.79;100.00;101580.47;4976989;28;20199;-73
2024/02/13 05:34:03;;;;;;;18.47;11.23;;;;;;;4.14;100.00;101495.22;4996984;28;20214;-73
2024/02/13 05:36:29;;;;;;;16.67;11.87;;;;;;;4.34;100.00;101536.75;4997258;28;20180;-73
2024/02/13 05:38:55;;;;;;;22.30;11.57;;;;;;;4.66;100.00;101607.34;4977832;28;20477;-73
2024/02/13 05:41:21;;;;;;;19.90;12.43;;;;;;;4.67;100.00;101591.25;4982864;28;20444;-73
2024/02/13 05:43:46;;;;;;;20.67;11.87;;;;;;;4.36;100.00;101547.22;4995108;28;20478;-73
2024/02/13 05:46:13;;;;;;;19.23;11.80;;;;;;;3.97;100.00;101510.06;4979007;28;20236;-73
2024/02/13 05:48:42;;;;;;;15.20;11.00;;;;;;;4.67;100.00;101593.91;4994618;28;20189;-73
2024/02/13 05:51:11;;;;;;;17.57;11.70;;;;;;;4.26;100.00;101531.31;4991931;28;20799;-73
2024/02/13 05:53:37;;;;;;;15.03;10.67;;;;;;;4.60;100.00;101608.75;4995932;28;20444;-73
2024/02/13 05:56:03;;;;;;;17.53;11.60;;;;;;;4.41;100.00;101558.28;4999463;28;20463;-73
2024/02/13 05:58:29;;;;;;;18.53;11.17;;;;;;;4.42;100.00;101573.22;4976366;28;20445;-73
2024/02/13 06:00:55;;;;;;;15.60;11.50;;;;;;;4.37;100.00;101527.63;4983121;28;20470;-73
2024/02/13 06:03:22;;;;;;;19.90;11.20;;;;;;;4.59;100.00;101596.41;4976014;28;20192;-74
2024/02/13 06:05:47;;;;;;;16.37;10.77;;;;;;;4.50;100.00;101573.38;4980603;28;20871;-73
2024/02/13 06:08:13;;;;;;;16.13;10.13;;;;;;;4.53;100.00;101610.28;4980743;28;20444;-73
2024/02/13 06:10:39;;;;;;;17.63;11.67;;;;;;;4.44;100.00;101608.47;4994008;28;20208;-73
2024/02/13 06:13:05;;;;;;;17.30;10.10;;;;;;;3.88;100.00;101494.94;4980386;28;20189;-73
2024/02/13 06:15:30;;;;;;;18.10;11.23;;;;;;;4.50;100.00;101607.91;5000096;28;20954;-73
2024/02/13 06:17:56;;;;;;;16.17;10.70;;;;;;;3.83;100.00;101490.09;4992563;28;20292;-74
2024/02/13 06:20:21;;;;;;;18.60;11.23;;;;;;;4.42;100.00;101583.84;5003069;28;20301;-73
2024/02/13 06:22:46;;;;;;;15.40;10.80;;;;;;;4.20;100.00;101543.31;4990849;28;20643;-73
2024/02/13 06:25:12;;;;;;;17.83;11.50;;;;;;;4.59;100.00;101609.72;4998194;28;20675;-74
2024/02/13 06:27:38;;;;;;;17.67;11.47;;;;;;;4.48;100.00;101564.69;4999727;28;20789;-74
2024/02/13 06:30:05;;;;;;;16.77;10.60;;;;;;;4.38;100.00;101609.84;4999049;28;20471;-74
2024/02/13 06:32:30;;;;;;;20.67;10.80;;;;;;;4.07;100.00;101551.56;4995859;28;20177;-73
2024/02/13 06:34:55;;;;;;;20.60;11.40;;;;;;;4.47;100.00;101603.69;4996442;28;20464;-73
2024/02/13 06:37:22;;;;;;;19.03;12.33;;;;;;;4.25;100.00;101556.16;4994493;28;20281;-73
2024/02/13 06:39:48;;;;;;;16.60;12.53;;;;;;;4.11;100.00;101543.31;5002133;28;20308;-73
2024/02/13 06:42:14;;;;;;;19.50;10.83;;;;;;;4.21;100.00;101582.16;5002954;28;20435;-73
2024/02/13 06:44:40;;;;;;;17.70;11.83;;;;;;;4.68;100.00;101621.31;4994854;28;20443;-73
2024/02/13 06:47:06;;;;;;;16.80;11.33;;;;;;;4.47;100.00;101627.63;4998809;28;20238;-73
2024/02/13 06:49:36;;;;;;;21.83;13.00;;;;;;;4.07;100.00;101558.69;4992936;28;20546;-73
2024/02/13 06:52:03;;;;;;;16.03;11.40;;;;;;;4.31;100.00;101584.84;4994783;28;20467;-73
2024/02/13 06:54:30;;;;;;;21.60;11.80;;;;;;;4.65;100.00;101645.50;4999702;28;20468;-73
2024/02/13 06:56:56;;;;;;;19.70;11.70;;;;;;;3.92;100.00;101523.75;5001003;28;20463;-73
2024/02/13 06:59:22;;;;;;;18.73;10.50;;;;;;;4.41;100.00;101614.06;5001243;28;20452;-73
2024/02/13 07:01:47;;;;;;;19.07;13.10;;;;;;;4.58;100.00;101602.72;5004638;28;20429;-73
2024/02/13 07:04:13;;;;;;;17.97;11.80;;;;;;;4.79;100.00;101662.84;4995140;28;20280;-73
2024/02/13 07:06:39;;;;;;;19.93;11.27;;;;;;;3.94;100.00;101532.41;5001064;28;20216;-73
2024/02/13 07:09:05;;;;;;;16.63;10.77;;;;;;;4.79;100.00;101673.50;4996611;28;21079;-73
2024/02/13 07:11:31;;;;;;;21.13;12.63;;;;;;;4.60;100.00;101661.03;4998562;28;20440;-73
2024/02/13 07:13:57;;;;;;;17.97;12.40;;;;;;;4.18;100.00;101584.28;4997668;28;20672;-73
2024/02/13 07:16:23;;;;;;;20.20;11.63;;;;;;;4.46;100.00;101617.13;4997979;28;20544;-73
2024/02/13 07:18:48;;;;;;;17.53;11.93;;;;;;;4.80;100.00;101665.34;5000784;28;20193;-73
2024/02/13 07:21:14;;;;;;;19.30;12.90;;;;;;;4.82;100.00;101687.34;4990291;28;20303;-73
2024/02/13 07:23:39;;;;;;;20.30;12.00;;;;;;;4.88;100.00;101680.63;4994891;28;20193;-73
2024/02/13 07:26:05;;;;;;;17.60;11.80;;;;;;;4.74;100.00;101685.38;4999743;28;20279;-73
2024/02/13 07:28:30;;;;;;;19.87;12.07;;;;;;;4.24;100.00;101626.19;4981614;28;20577;-72
2024/02/13 07:30:58;;;;;;;20.20;12.23;;;;;;;4.89;100.00;101692.91;4998717;28;20216;-73
2024/02/13 07:33:23;;;;;;;18.53;11.33;;;;;;;4.59;100.00;101670.81;4999689;28;20216;-73
2024/02/13 07:35:49;;;;;;;20.80;12.40;;;;;;;4.67;100.00;101678.94;4999423;28;20464;-73
2024/02/13 07:38:15;;;;;;;23.47;12.40;;;;;;;4.36;100.00;101618.94;4998935;28;20193;-73
2024/02/13 07:40:40;;;;;;;20.97;12.30;;;;;;;4.92;100.00;101709.44;4982169;28;20471;-73
2024/02/13 07:43:08;;;;;;;17.37;12.30;;;;;;;4.66;100.00;101687.91;4980637;28;20189;-73
2024/02/13 07:45:34;;;;;;;16.33;12.23;;;;;;;4.55;100.00;101669.44;4984932;28;20569;-73
2024/02/13 07:48:02;;;;;;;23.63;11.93;;;;;;;4.85;100.00;101718.09;4978550;28;20439;-73
2024/02/13 07:50:27;;;;;;;23.80;11.93;;;;;;;4.94;100.00;101739.38;4982482;28;20999;-73
2024/02/13 07:52:53;;;;;;;18.10;12.17;;;;;;;4.87;100.00;101713.50;4998895;28;20440;-73
2024/02/13 07:55:19;;;;;;;16.77;11.10;;;;;;;4.86;100.00;101738.38;4980723;28;20668;-73
2024/02/13 07:57:50;;;;;;;18.00;11.30;;;;;;;4.85;100.00;101734.91;4997847;28;20189;-73
2024/02/13 08:00:16;;;;;;;20.83;11.70;;;;;;;4.59;100.00;101691.25;4987944;28;20459;-72
2024/02/13 08:02:51;;;;;;;20.60;13.50;;;;;;;4.91;100.00;101734.34;4980104;28;20544;-73
2024/02/13 08:05:16;;;;;;;17.30;10.90;;;;;;;4.92;100.00;101741.34;4992424;28;20892;-73
2024/02/13 08:07:42;;;;;;;15.30;10.43;;;;;;;4.49;100.00;101683.28;4981352;28;20452;-73
2024/02/13 08:10:10;;;;;;;18.50;11.70;;;;;;;4.38;100.00;101678.09;4982211;28;20221;-73
2024/02/13 08:12:35;;;;;;;20.63;12.27;;;;;;;4.65;100.00;101699.50;4993668;28;20704;-73
2024/02/13 08:15:01;;;;;;;21.93;10.90;;;;;;;4.66;100.00;101687.91;5006419;28;20468;-73
2024/02/13 08:17:26;;;;;;;15.20;11.00;;;;;;;5.04;100.00;101728.75;4998287;28;20197;-73
2024/02/13 08:19:52;;;;;;;19.20;11.10;;;;;;;4.78;100.00;101722.31;4995840;28;20434;-73
2024/02/13 08:22:18;;;;;;;19.07;11.23;;;;;;;4.48;100.00;101639.06;4998036;28;20448;-73
2024/02/13 08:24:44;;;;;;;21.00;10.70;;;;;;;4.62;100.00;101713.06;4981280;28;20538;-73
2024/02/13 08:27:09;;;;;;;14.63;10.10;;;;;;;5.10;100.00;101759.25;4996770;28;20464;-73
2024/02/13 08:29:35;;;;;;;16.27;9.23;;;;;;;5.03;100.00;101750.97;4991091;28;20227;-73
2024/02/13 08:32:02;;;;;;;17.47;10.00;;;;;;;5.19;100.00;101764.56;4995211;28;20188;-73
2024/02/13 08:34:28;;;;;;;18.23;10.50;;;;;;;4.54;100.00;101670.38;4978754;28;20286;-73
2024/02/13 08:36:54;;;;;;;22.90;10.17;;;;;;;5.02;100.00;101765.28;4993749;28;20539;-73
2024/02/13 08:39:20;;;;;;;18.47;10.10;;;;;;;5.26;100.00;101769.31;4979911;28;20267;-73
2024/02/13 08:41:45;;;;;;;14.67;9.63;;;;;;;4.81;100.00;101701.59;4998434;28;20438;-73
2024/02/13 08:44:11;;;;;;;14.27;9.43;;;;;;;4.81;100.00;101692.81;4979904;28;20444;-73
2024/02/13 08:46:36;;;;;;;20.33;9.40;;;;;;;5.11;100.00;101776.88;4980948;28;20325;-73
2024/02/13 08:49:03;;;;;;;15.33;8.60;;;;;;;5.26;100.00;101801.25;4994789;28;20576;-73
2024/02/13 08:51:30;;;;;;;14.97;8.97;;;;;;;5.31;100.00;101804.31;4973930;28;20561;-73
2024/02/13 08:53:56;;;;;;;18.83;9.50;;;;;;;5.29;100.00;101804.44;4994032;28;20491;-73
2024/02/13 08:56:22;;;;;;;16.13;9.20;;;;;;;5.36;100.00;101794.09;4989263;28;20471;-72
2024/02/13 08:58:52;;;;;;;15.50;9.23;;;;;;;5.38;100.00;101794.78;4993432;28;20212;-73
2024/02/13 09:01:20;;;;;;;22.23;9.93;;;;;;;4.98;100.00;101726.66;4995320;28;20436;-73
2024/02/13 09:03:46;;;;;;;15.30;8.23;;;;;;;4.81;100.00;101661.75;4996982;28;20993;-73
2024/02/13 09:06:13;;;;;;;16.50;9.40;;;;;;;5.46;100.00;101768.31;4974456;28;20879;-73
2024/02/13 09:08:41;;;;;;;13.03;7.73;;;;;;;5.06;100.00;101686.03;4995827;28;20505;-72
2024/02/13 09:11:08;;;;;;;14.50;8.00;;;;;;;5.11;100.00;101689.97;4990213;28;20432;-73
2024/02/13 09:13:33;;;;;;;14.07;8.00;;;;;;;5.64;100.00;101798.56;4996378;28;20444;-72
2024/02/13 09:15:58;;;;;;;15.50;9.70;;;;;;;5.49;100.00;101765.38;4998411;28;20476;-73
2024/02/13 09:18:24;;;;;;;18.37;9.20;;;;;;;5.77;100.00;101803.56;4993593;28;20184;-73
2024/02/13 09:20:49;;;;;;;15.40;8.60;;;;;;;5.85;100.00;101792.19;4977530;28;20664;-73
2024/02/13 09:23:18;;;;;;;13.37;7.37;;;;;;;5.78;100.00;101805.22;4996671;28;20651;-73
2024/02/13 09:25:51;;;;;;;19.47;9.17;;;;;;;5.43;100.00;101756.13;4995080;28;20185;-73
2024/02/13 09:28:16;;;;;;;17.33;8.90;;;;;;;5.82;100.00;101811.13;5002210;28;20516;-73
2024/02/13 09:30:43;;;;;;;15.67;7.83;;;;;;;5.90;100.00;101805.91;4980662;28;20977;-73
2024/02/13 09:33:09;;;;;;;17.57;8.23;;;;;;;5.90;100.00;101816.53;4978426;28;20657;-73
2024/02/13 09:35:35;;;;;;;17.77;8.03;;;;;;;5.77;100.00;101792.06;4977797;28;20525;-73
2024/02/13 09:38:00;;;;;;;13.60;7.10;;;;;;;5.69;100.00;101757.34;4991827;28;20448;-73
2024/02/13 09:40:28;;;;;;;15.20;7.80;;;;;;;5.77;100.00;101779.59;4991042;28;20270;-73
2024/02/13 09:42:54;;;;;;;15.20;7.90;;;;;;;5.68;100.00;101780.47;4979076;28;20188;-73
2024/02/13 09:45:21;;;;;;;16.23;8.07;;;;;;;6.00;100.00;101827.22;4991962;28;20436;-73
2024/02/13 09:47:49;;;;;;;17.63;8.43;;;;;;;5.68;100.00;101756.50;4996676;28;20531;-73
2024/02/13 09:50:15;;;;;;;15.97;8.97;;;;;;;5.85;100.00;101793.03;4979177;28;20892;-73
2024/02/13 09:52:49;;;;;;;14.40;7.97;;;;;;;6.03;100.00;101816.28;4993278;28;21005;-73
2024/02/13 09:55:15;;;;;;;17.53;8.00;;;;;;;5.78;100.00;101767.13;4990800;28;20473;-73
2024/02/13 09:57:41;;;;;;;18.20;8.63;;;;;;;6.02;100.00;101815.44;4993848;28;20451;-73
2024/02/13 10:00:08;;;;;;;19.97;8.57;;;;;;;6.17;100.00;101821.13;4980183;28;20463;-73
2024/02/13 10:02:41;;;;;;;14.67;8.10;;;;;;;6.10;100.00;101823.56;4994497;28;20479;-73
2024/02/13 10:05:09;;;;;;;15.73;9.63;;;;;;;5.84;100.00;101795.81;4996401;28;20543;-73
2024/02/13 10:07:37;;;;;;;15.90;7.60;;;;;;;6.12;100.00;101828.72;4989490;28;20452;-73
2024/02/13 10:10:04;;;;;;;14.50;8.23;;;;;;;6.13;100.00;101806.41;4999402;28;20462;-73
2024/02/13 10:12:29;;;;;;;15.83;7.00;;;;;;;5.85;100.00;101789.53;5004766;28;20795;-73
2024/02/13 10:14:58;;;;;;;16.23;9.10;;;;;;;6.07;100.00;101828.31;5001270;28;20478;-73
2024/02/13 10:17:23;;;;;;;14.17;7.83;;;;;;;6.18;100.00;101837.97;4998185;28;20185;-72
2024/02/13 10:19:52;;;;;;;17.57;8.60;;;;;;;6.21;100.00;101835.84;5001586;28;20482;-73
2024/02/13 10:22:20;;;;;;;16.73;8.10;;;;;;;5.28;100.00;101676.94;5038404;23;20220;-77
2024/02/13 10:24:47;;;;;;;15.17;7.63;;;;;;;6.16;100.00;101811.44;5004902;28;20443;-77
2024/02/13 10:29:48;;;;;;;12.10;7.07;;;;;;;5.82;100.00;101756.06;5012334;28;20997;-72
2024/02/13 10:32:17;;;;;;;21.63;7.23;;;;;;;6.30;100.00;101840.28;4992658;28;20508;-75
2024/02/13 10:34:42;;;;;;;13.77;7.30;;;;;;;6.21;100.00;101800.38;5008277;28;20208;-75
2024/02/13 10:37:11;;;;;;;17.70;7.57;;;;;;;6.54;100.00;101863.78;4992898;28;20456;-76
2024/02/13 10:39:40;;;;;;;13.40;7.87;;;;;;;6.49;100.00;101834.03;4985369;28;20741;-76
2024/02/13 10:42:15;;;;;;;13.07;7.13;;;;;;;6.25;100.00;101809.72;4994399;28;20458;-77
2024/02/13 10:44:44;;;;;;;14.43;6.37;;;;;;;5.91;100.00;101775.66;5005443;28;21074;-76
2024/02/13 10:47:16;;;;;;;13.73;6.83;;;;;;;6.47;100.00;101870.66;4989769;28;20501;-73
2024/02/13 10:49:53;;;;;;;18.13;7.47;;;;;;;5.72;100.00;101743.75;5012507;28;20558;-74
2024/02/13 10:52:20;;;;;;;14.47;7.30;;;;;;;6.63;100.00;101871.88;4990449;28;20448;-76
2024/02/13 10:54:49;;;;;;;14.53;6.60;;;;;;;6.61;100.00;101873.84;4996009;28;20466;-77
2024/02/13 10:57:17;;;;;;;15.30;6.97;;;;;;;6.60;100.00;101880.16;4989884;28;20522;-77
2024/02/13 10:59:46;;;;;;;17.07;6.90;;;;;;;6.68;100.00;101875.78;4998641;28;20836;-78
2024/02/13 11:02:17;;;;;;;14.20;5.97;;;;;;;6.72;100.00;101887.81;4997056;28;22264;-77
2024/02/13 11:04:43;;;;;;;14.20;6.30;;;;;;;6.57;100.00;101849.31;5002225;28;20455;-76
2024/02/13 11:07:15;;;;;;;17.57;7.90;;;;;;;6.75;100.00;101876.84;5004626;28;20478;-77
2024/02/13 11:09:41;;;;;;;19.70;7.27;;;;;;;6.74;100.00;101888.50;4994970;28;20459;-76
2024/02/13 11:12:09;;;;;;;15.93;7.63;;;;;;;6.84;100.00;101876.94;5012918;28;20456;-75
2024/02/13 11:14:35;;;;;;;13.13;6.80;;;;;;;6.91;100.00;101894.03;5012325;28;20542;-75
2024/02/13 11:17:03;;;;;;;11.70;5.93;;;;;;;6.81;100.00;101877.25;4997156;28;20485;-76
2024/02/13 11:19:38;;;;;;;13.53;6.50;;;;;;;7.01;100.00;101889.47;5014628;28;20460;-76